Alts del Olimpo, Puerto Rico
Current Conditions -  °F | °C
As of 5:56 AM on Saturday 29 Nov 2014 (Local Time) from TJSJ Reporting Station
Broken Clouds Broken Clouds  
Wind Chill: 24°   Ceiling: 5000
Heat Index: 24°   Visibility: 10mi
Dew Point: 23°   Wind: 0mph
Humidity: 94%   Direction: NA
Pressure: 29.95"   Gusts: NA
Location:  17.9849°N, 66.1175°W
Report Text: TJSJ 290956Z 00000KT 10SM FEW022 BKN050 24/23 A2995 RMK AO2 SLP140 SHRA DSNT E T02390228
Loading
Personal Weather Stations






























Interactive Weather Map New forecast layout! Learn more

10-Day Weather Forecast

Advertisements
Track Severe Weather on mobile